sensor_id;sensor_type;location;lat;lon;timestamp;P1;durP1;ratioP1;P2;durP2;ratioP2
35056;SDS011;21241;51.828;19.574;2023-09-19T00:00:48;20.70;;;19.10;;
35056;SDS011;21241;51.828;19.574;2023-09-19T00:03:36;20.30;;;18.70;;
35056;SDS011;21241;51.828;19.574;2023-09-19T00:06:05;22.10;;;20.40;;
35056;SDS011;21241;51.828;19.574;2023-09-19T00:08:36;21.60;;;19.70;;
35056;SDS011;21241;51.828;19.574;2023-09-19T00:11:03;22.10;;;20.30;;
35056;SDS011;21241;51.828;19.574;2023-09-19T00:13:32;20.90;;;19.30;;
35056;SDS011;21241;51.828;19.574;2023-09-19T00:16:00;21.40;;;19.80;;
35056;SDS011;21241;51.828;19.574;2023-09-19T00:18:27;22.50;;;20.40;;
35056;SDS011;21241;51.828;19.574;2023-09-19T00:20:59;22.30;;;20.40;;
35056;SDS011;21241;51.828;19.574;2023-09-19T00:23:27;21.50;;;19.70;;
35056;SDS011;21241;51.828;19.574;2023-09-19T00:25:58;23.00;;;21.10;;
35056;SDS011;21241;51.828;19.574;2023-09-19T00:28:25;21.20;;;19.70;;
35056;SDS011;21241;51.828;19.574;2023-09-19T00:30:53;22.00;;;20.30;;
35056;SDS011;21241;51.828;19.574;2023-09-19T00:33:24;21.40;;;19.80;;
35056;SDS011;21241;51.828;19.574;2023-09-19T00:35:52;21.20;;;19.60;;
35056;SDS011;21241;51.828;19.574;2023-09-19T00:38:21;22.00;;;20.30;;
35056;SDS011;21241;51.828;19.574;2023-09-19T00:40:49;21.30;;;19.70;;
35056;SDS011;21241;51.828;19.574;2023-09-19T00:43:22;21.10;;;19.40;;
35056;SDS011;21241;51.828;19.574;2023-09-19T00:45:54;20.40;;;18.70;;
35056;SDS011;21241;51.828;19.574;2023-09-19T00:48:23;21.10;;;19.50;;
35056;SDS011;21241;51.828;19.574;2023-09-19T00:50:52;20.50;;;19.00;;
35056;SDS011;21241;51.828;19.574;2023-09-19T00:53:21;20.40;;;18.90;;
35056;SDS011;21241;51.828;19.574;2023-09-19T00:55:51;20.90;;;19.30;;
35056;SDS011;21241;51.828;19.574;2023-09-19T00:58:20;21.60;;;19.80;;
35056;SDS011;21241;51.828;19.574;2023-09-19T01:00:48;21.30;;;19.60;;
35056;SDS011;21241;51.828;19.574;2023-09-19T01:03:17;21.70;;;19.90;;
35056;SDS011;21241;51.828;19.574;2023-09-19T01:05:46;22.10;;;20.30;;
35056;SDS011;21241;51.828;19.574;2023-09-19T01:08:14;20.90;;;19.10;;
35056;SDS011;21241;51.828;19.574;2023-09-19T01:10:44;21.50;;;19.90;;
35056;SDS011;21241;51.828;19.574;2023-09-19T01:13:22;21.00;;;19.30;;
35056;SDS011;21241;51.828;19.574;2023-09-19T01:16:03;21.50;;;19.90;;
35056;SDS011;21241;51.828;19.574;2023-09-19T01:21:09;22.00;;;20.30;;
35056;SDS011;21241;51.828;19.574;2023-09-19T01:23:46;21.30;;;19.60;;
35056;SDS011;21241;51.828;19.574;2023-09-19T01:29:01;21.60;;;19.90;;
35056;SDS011;21241;51.828;19.574;2023-09-19T01:31:41;21.20;;;19.50;;
35056;SDS011;21241;51.828;19.574;2023-09-19T01:34:10;20.80;;;19.10;;
35056;SDS011;21241;51.828;19.574;2023-09-19T01:36:38;20.70;;;19.10;;
35056;SDS011;21241;51.828;19.574;2023-09-19T01:39:10;21.20;;;19.50;;
35056;SDS011;21241;51.828;19.574;2023-09-19T01:44:09;20.60;;;19.00;;
35056;SDS011;21241;51.828;19.574;2023-09-19T01:46:39;20.50;;;18.90;;
35056;SDS011;21241;51.828;19.574;2023-09-19T01:52:12;20.40;;;18.80;;
35056;SDS011;21241;51.828;19.574;2023-09-19T01:54:51;21.40;;;19.80;;
35056;SDS011;21241;51.828;19.574;2023-09-19T01:59:54;23.00;;;21.10;;
35056;SDS011;21241;51.828;19.574;2023-09-19T02:02:24;21.70;;;19.90;;
35056;SDS011;21241;51.828;19.574;2023-09-19T02:04:52;21.50;;;19.80;;
35056;SDS011;21241;51.828;19.574;2023-09-19T02:07:25;21.20;;;19.60;;
35056;SDS011;21241;51.828;19.574;2023-09-19T02:09:55;21.70;;;20.10;;
35056;SDS011;21241;51.828;19.574;2023-09-19T02:12:23;21.90;;;20.10;;
35056;SDS011;21241;51.828;19.574;2023-09-19T02:14:50;22.10;;;20.30;;
35056;SDS011;21241;51.828;19.574;2023-09-19T02:17:18;22.10;;;20.60;;
35056;SDS011;21241;51.828;19.574;2023-09-19T02:19:47;22.20;;;20.50;;
35056;SDS011;21241;51.828;19.574;2023-09-19T02:22:15;22.20;;;20.50;;
35056;SDS011;21241;51.828;19.574;2023-09-19T02:24:44;22.20;;;20.40;;
35056;SDS011;21241;51.828;19.574;2023-09-19T02:27:11;22.50;;;20.80;;
35056;SDS011;21241;51.828;19.574;2023-09-19T02:29:40;23.10;;;21.30;;
35056;SDS011;21241;51.828;19.574;2023-09-19T02:32:09;22.80;;;21.20;;
35056;SDS011;21241;51.828;19.574;2023-09-19T02:34:37;21.90;;;20.20;;
35056;SDS011;21241;51.828;19.574;2023-09-19T02:37:06;22.30;;;20.60;;
35056;SDS011;21241;51.828;19.574;2023-09-19T02:39:35;23.40;;;21.60;;
35056;SDS011;21241;51.828;19.574;2023-09-19T02:42:03;21.30;;;19.70;;
35056;SDS011;21241;51.828;19.574;2023-09-19T02:44:34;22.80;;;21.00;;
35056;SDS011;21241;51.828;19.574;2023-09-19T02:47:03;23.50;;;21.70;;
35056;SDS011;21241;51.828;19.574;2023-09-19T02:49:31;23.30;;;21.40;;
35056;SDS011;21241;51.828;19.574;2023-09-19T02:51:59;23.30;;;21.40;;
35056;SDS011;21241;51.828;19.574;2023-09-19T02:54:27;24.10;;;22.30;;
35056;SDS011;21241;51.828;19.574;2023-09-19T02:56:55;23.10;;;21.40;;
35056;SDS011;21241;51.828;19.574;2023-09-19T02:59:23;24.00;;;21.80;;
35056;SDS011;21241;51.828;19.574;2023-09-19T03:01:52;22.30;;;20.60;;
35056;SDS011;21241;51.828;19.574;2023-09-19T03:04:22;23.90;;;22.10;;
35056;SDS011;21241;51.828;19.574;2023-09-19T03:06:50;25.20;;;23.20;;
35056;SDS011;21241;51.828;19.574;2023-09-19T03:09:19;24.60;;;22.60;;
35056;SDS011;21241;51.828;19.574;2023-09-19T03:11:47;22.80;;;21.10;;
35056;SDS011;21241;51.828;19.574;2023-09-19T03:14:15;23.30;;;21.60;;
35056;SDS011;21241;51.828;19.574;2023-09-19T03:16:44;24.80;;;22.70;;
35056;SDS011;21241;51.828;19.574;2023-09-19T03:19:13;22.30;;;20.60;;
35056;SDS011;21241;51.828;19.574;2023-09-19T03:21:43;23.00;;;21.30;;
35056;SDS011;21241;51.828;19.574;2023-09-19T03:24:10;22.50;;;20.80;;
35056;SDS011;21241;51.828;19.574;2023-09-19T03:26:39;21.20;;;19.60;;
35056;SDS011;21241;51.828;19.574;2023-09-19T03:29:07;24.40;;;22.50;;
35056;SDS011;21241;51.828;19.574;2023-09-19T03:31:36;23.40;;;21.60;;
35056;SDS011;21241;51.828;19.574;2023-09-19T03:34:08;21.90;;;20.20;;
35056;SDS011;21241;51.828;19.574;2023-09-19T03:36:36;23.30;;;21.40;;
35056;SDS011;21241;51.828;19.574;2023-09-19T03:39:04;23.10;;;21.40;;
35056;SDS011;21241;51.828;19.574;2023-09-19T03:41:33;23.50;;;21.50;;
35056;SDS011;21241;51.828;19.574;2023-09-19T03:44:01;23.40;;;21.50;;
35056;SDS011;21241;51.828;19.574;2023-09-19T03:46:29;22.60;;;20.80;;
35056;SDS011;21241;51.828;19.574;2023-09-19T03:48:58;23.00;;;21.10;;
35056;SDS011;21241;51.828;19.574;2023-09-19T03:51:26;24.20;;;22.30;;
35056;SDS011;21241;51.828;19.574;2023-09-19T03:53:54;23.40;;;21.50;;
35056;SDS011;21241;51.828;19.574;2023-09-19T03:56:22;22.90;;;21.20;;
35056;SDS011;21241;51.828;19.574;2023-09-19T03:58:49;23.00;;;21.10;;
35056;SDS011;21241;51.828;19.574;2023-09-19T04:01:18;22.40;;;20.70;;
35056;SDS011;21241;51.828;19.574;2023-09-19T04:03:46;22.30;;;20.70;;
35056;SDS011;21241;51.828;19.574;2023-09-19T04:06:16;22.40;;;20.80;;
35056;SDS011;21241;51.828;19.574;2023-09-19T04:08:44;22.30;;;20.70;;
35056;SDS011;21241;51.828;19.574;2023-09-19T04:11:12;20.50;;;19.00;;
35056;SDS011;21241;51.828;19.574;2023-09-19T04:13:40;21.70;;;20.10;;
35056;SDS011;21241;51.828;19.574;2023-09-19T04:16:09;21.80;;;20.20;;
35056;SDS011;21241;51.828;19.574;2023-09-19T04:18:38;20.80;;;19.30;;
35056;SDS011;21241;51.828;19.574;2023-09-19T04:21:08;20.80;;;19.40;;
35056;SDS011;21241;51.828;19.574;2023-09-19T04:23:36;21.60;;;19.90;;
35056;SDS011;21241;51.828;19.574;2023-09-19T04:26:04;21.70;;;20.10;;
35056;SDS011;21241;51.828;19.574;2023-09-19T04:28:35;21.20;;;19.60;;
35056;SDS011;21241;51.828;19.574;2023-09-19T04:31:06;21.60;;;20.00;;
35056;SDS011;21241;51.828;19.574;2023-09-19T04:33:36;22.50;;;20.60;;
35056;SDS011;21241;51.828;19.574;2023-09-19T04:36:04;21.30;;;19.80;;
35056;SDS011;21241;51.828;19.574;2023-09-19T04:38:54;21.60;;;19.80;;
35056;SDS011;21241;51.828;19.574;2023-09-19T04:41:22;22.10;;;20.30;;
35056;SDS011;21241;51.828;19.574;2023-09-19T04:43:50;22.50;;;20.80;;
35056;SDS011;21241;51.828;19.574;2023-09-19T04:46:19;22.20;;;20.60;;
35056;SDS011;21241;51.828;19.574;2023-09-19T04:48:48;22.30;;;20.50;;
35056;SDS011;21241;51.828;19.574;2023-09-19T04:51:15;21.80;;;20.20;;
35056;SDS011;21241;51.828;19.574;2023-09-19T04:53:43;22.70;;;20.90;;
35056;SDS011;21241;51.828;19.574;2023-09-19T04:56:11;21.40;;;19.80;;
35056;SDS011;21241;51.828;19.574;2023-09-19T04:58:39;24.00;;;22.20;;
35056;SDS011;21241;51.828;19.574;2023-09-19T05:01:06;21.00;;;19.50;;
35056;SDS011;21241;51.828;19.574;2023-09-19T05:03:39;21.30;;;19.60;;
35056;SDS011;21241;51.828;19.574;2023-09-19T05:06:07;22.20;;;20.40;;
35056;SDS011;21241;51.828;19.574;2023-09-19T05:08:35;21.90;;;20.10;;
35056;SDS011;21241;51.828;19.574;2023-09-19T05:11:02;21.00;;;19.20;;
35056;SDS011;21241;51.828;19.574;2023-09-19T05:13:30;21.10;;;19.30;;
35056;SDS011;21241;51.828;19.574;2023-09-19T05:16:01;21.70;;;20.00;;
35056;SDS011;21241;51.828;19.574;2023-09-19T05:18:30;21.10;;;19.50;;
35056;SDS011;21241;51.828;19.574;2023-09-19T05:21:01;21.80;;;20.00;;
35056;SDS011;21241;51.828;19.574;2023-09-19T05:23:29;22.10;;;20.30;;
35056;SDS011;21241;51.828;19.574;2023-09-19T05:25:57;21.40;;;19.60;;
35056;SDS011;21241;51.828;19.574;2023-09-19T05:28:27;20.90;;;19.20;;
35056;SDS011;21241;51.828;19.574;2023-09-19T05:30:55;22.70;;;20.80;;
35056;SDS011;21241;51.828;19.574;2023-09-19T05:33:23;21.80;;;20.00;;
35056;SDS011;21241;51.828;19.574;2023-09-19T05:35:51;23.10;;;21.30;;
35056;SDS011;21241;51.828;19.574;2023-09-19T05:38:19;23.10;;;21.00;;
35056;SDS011;21241;51.828;19.574;2023-09-19T05:40:47;22.90;;;20.80;;
35056;SDS011;21241;51.828;19.574;2023-09-19T05:43:15;21.30;;;19.60;;
35056;SDS011;21241;51.828;19.574;2023-09-19T05:45:43;20.90;;;19.10;;
35056;SDS011;21241;51.828;19.574;2023-09-19T05:48:11;20.80;;;19.30;;
35056;SDS011;21241;51.828;19.574;2023-09-19T05:50:41;19.80;;;18.30;;
35056;SDS011;21241;51.828;19.574;2023-09-19T05:53:09;19.90;;;18.30;;
35056;SDS011;21241;51.828;19.574;2023-09-19T05:55:40;20.40;;;18.90;;
35056;SDS011;21241;51.828;19.574;2023-09-19T05:58:09;20.20;;;18.60;;
35056;SDS011;21241;51.828;19.574;2023-09-19T06:00:37;20.00;;;18.30;;
35056;SDS011;21241;51.828;19.574;2023-09-19T06:03:07;19.80;;;18.30;;
35056;SDS011;21241;51.828;19.574;2023-09-19T06:05:35;20.60;;;19.10;;
35056;SDS011;21241;51.828;19.574;2023-09-19T06:08:04;20.20;;;18.80;;
35056;SDS011;21241;51.828;19.574;2023-09-19T06:10:35;21.60;;;19.80;;
35056;SDS011;21241;51.828;19.574;2023-09-19T06:13:03;22.40;;;20.60;;
35056;SDS011;21241;51.828;19.574;2023-09-19T06:15:32;25.80;;;23.50;;
35056;SDS011;21241;51.828;19.574;2023-09-19T06:18:01;24.70;;;22.60;;
35056;SDS011;21241;51.828;19.574;2023-09-19T06:20:30;24.20;;;22.00;;
35056;SDS011;21241;51.828;19.574;2023-09-19T06:22:58;24.90;;;22.70;;
35056;SDS011;21241;51.828;19.574;2023-09-19T06:25:26;25.40;;;23.30;;
35056;SDS011;21241;51.828;19.574;2023-09-19T06:27:55;25.50;;;23.40;;
35056;SDS011;21241;51.828;19.574;2023-09-19T06:30:24;26.50;;;24.30;;
35056;SDS011;21241;51.828;19.574;2023-09-19T06:32:56;29.30;;;26.90;;
35056;SDS011;21241;51.828;19.574;2023-09-19T06:35:25;27.40;;;25.20;;
35056;SDS011;21241;51.828;19.574;2023-09-19T06:37:57;27.70;;;25.40;;
35056;SDS011;21241;51.828;19.574;2023-09-19T06:40:26;25.50;;;23.50;;
35056;SDS011;21241;51.828;19.574;2023-09-19T06:42:56;26.40;;;24.20;;
35056;SDS011;21241;51.828;19.574;2023-09-19T06:45:24;26.10;;;23.80;;
35056;SDS011;21241;51.828;19.574;2023-09-19T06:47:55;25.80;;;23.70;;
35056;SDS011;21241;51.828;19.574;2023-09-19T06:50:26;26.10;;;24.00;;
35056;SDS011;21241;51.828;19.574;2023-09-19T06:52:55;26.50;;;24.30;;
35056;SDS011;21241;51.828;19.574;2023-09-19T06:55:26;26.50;;;24.40;;
35056;SDS011;21241;51.828;19.574;2023-09-19T06:58:00;25.30;;;23.20;;
35056;SDS011;21241;51.828;19.574;2023-09-19T07:00:28;26.10;;;24.00;;
35056;SDS011;21241;51.828;19.574;2023-09-19T07:05:32;25.40;;;23.30;;
35056;SDS011;21241;51.828;19.574;2023-09-19T07:08:00;26.00;;;23.80;;
35056;SDS011;21241;51.828;19.574;2023-09-19T07:10:29;23.80;;;21.80;;
35056;SDS011;21241;51.828;19.574;2023-09-19T07:13:04;22.70;;;20.80;;
35056;SDS011;21241;51.828;19.574;2023-09-19T07:15:33;23.20;;;21.30;;
35056;SDS011;21241;51.828;19.574;2023-09-19T09:13:09;11.10;;;10.20;;
35056;SDS011;21241;51.828;19.574;2023-09-19T09:15:38;12.60;;;11.50;;
35056;SDS011;21241;51.828;19.574;2023-09-19T09:18:06;12.60;;;11.60;;
35056;SDS011;21241;51.828;19.574;2023-09-19T09:20:33;14.00;;;12.90;;
35056;SDS011;21241;51.828;19.574;2023-09-19T09:23:01;14.20;;;13.20;;
35056;SDS011;21241;51.828;19.574;2023-09-19T09:28:24;15.20;;;14.10;;
35056;SDS011;21241;51.828;19.574;2023-09-19T09:30:54;15.90;;;14.70;;
35056;SDS011;21241;51.828;19.574;2023-09-19T09:33:22;18.20;;;16.90;;
35056;SDS011;21241;51.828;19.574;2023-09-19T09:38:46;18.70;;;17.40;;
35056;SDS011;21241;51.828;19.574;2023-09-19T09:41:22;18.70;;;17.50;;
35056;SDS011;21241;51.828;19.574;2023-09-19T09:44:17;18.30;;;17.00;;
35056;SDS011;21241;51.828;19.574;2023-09-19T09:46:47;19.30;;;17.90;;
35056;SDS011;21241;51.828;19.574;2023-09-19T09:49:27;20.70;;;19.30;;
35056;SDS011;21241;51.828;19.574;2023-09-19T09:52:05;19.70;;;18.40;;
35056;SDS011;21241;51.828;19.574;2023-09-19T09:55:00;20.60;;;19.20;;
35056;SDS011;21241;51.828;19.574;2023-09-19T09:57:34;20.30;;;18.90;;
35056;SDS011;21241;51.828;19.574;2023-09-19T10:00:03;21.30;;;19.80;;
35056;SDS011;21241;51.828;19.574;2023-09-19T10:02:40;21.30;;;19.60;;
35056;SDS011;21241;51.828;19.574;2023-09-19T10:05:16;21.80;;;20.30;;
35056;SDS011;21241;51.828;19.574;2023-09-19T10:07:48;21.90;;;20.40;;
35056;SDS011;21241;51.828;19.574;2023-09-19T10:10:42;22.10;;;20.60;;
35056;SDS011;21241;51.828;19.574;2023-09-19T10:13:11;21.80;;;20.30;;
35056;SDS011;21241;51.828;19.574;2023-09-19T10:15:42;22.20;;;20.60;;
35056;SDS011;21241;51.828;19.574;2023-09-19T10:18:23;23.20;;;21.60;;
35056;SDS011;21241;51.828;19.574;2023-09-19T10:20:52;22.20;;;20.80;;
35056;SDS011;21241;51.828;19.574;2023-09-19T10:23:20;20.70;;;19.40;;
35056;SDS011;21241;51.828;19.574;2023-09-19T10:25:53;21.50;;;20.10;;
35056;SDS011;21241;51.828;19.574;2023-09-19T10:28:22;20.70;;;19.30;;
35056;SDS011;21241;51.828;19.574;2023-09-19T10:30:51;20.90;;;19.60;;
35056;SDS011;21241;51.828;19.574;2023-09-19T10:33:21;20.30;;;19.10;;
35056;SDS011;21241;51.828;19.574;2023-09-19T10:35:54;19.90;;;18.60;;
35056;SDS011;21241;51.828;19.574;2023-09-19T10:38:25;20.40;;;19.00;;
35056;SDS011;21241;51.828;19.574;2023-09-19T10:40:56;21.10;;;19.60;;
35056;SDS011;21241;51.828;19.574;2023-09-19T10:43:30;18.90;;;17.80;;
35056;SDS011;21241;51.828;19.574;2023-09-19T10:46:07;19.80;;;18.50;;
35056;SDS011;21241;51.828;19.574;2023-09-19T10:48:38;20.60;;;19.40;;
35056;SDS011;21241;51.828;19.574;2023-09-19T10:51:12;20.30;;;18.90;;
35056;SDS011;21241;51.828;19.574;2023-09-19T10:56:34;21.40;;;20.00;;
35056;SDS011;21241;51.828;19.574;2023-09-19T10:59:09;20.30;;;19.00;;
35056;SDS011;21241;51.828;19.574;2023-09-19T11:01:45;20.10;;;18.70;;
35056;SDS011;21241;51.828;19.574;2023-09-19T11:07:07;19.50;;;18.30;;
35056;SDS011;21241;51.828;19.574;2023-09-19T11:09:47;20.60;;;19.10;;
35056;SDS011;21241;51.828;19.574;2023-09-19T11:15:08;18.40;;;17.30;;
35056;SDS011;21241;51.828;19.574;2023-09-19T11:17:39;18.20;;;17.00;;
35056;SDS011;21241;51.828;19.574;2023-09-19T11:30:35;17.60;;;16.60;;
35056;SDS011;21241;51.828;19.574;2023-09-19T11:33:17;17.70;;;16.50;;
35056;SDS011;21241;51.828;19.574;2023-09-19T11:36:15;18.00;;;16.80;;
35056;SDS011;21241;51.828;19.574;2023-09-19T11:43:48;18.90;;;17.50;;
35056;SDS011;21241;51.828;19.574;2023-09-19T11:46:23;16.90;;;15.90;;
35056;SDS011;21241;51.828;19.574;2023-09-19T11:48:51;16.50;;;15.40;;
35056;SDS011;21241;51.828;19.574;2023-09-19T11:51:21;15.20;;;14.30;;
35056;SDS011;21241;51.828;19.574;2023-09-19T11:53:52;13.90;;;13.00;;
35056;SDS011;21241;51.828;19.574;2023-09-19T11:56:21;13.00;;;12.20;;
35056;SDS011;21241;51.828;19.574;2023-09-19T11:58:53;12.90;;;12.10;;
35056;SDS011;21241;51.828;19.574;2023-09-19T12:01:24;12.70;;;11.90;;
35056;SDS011;21241;51.828;19.574;2023-09-19T12:03:58;13.10;;;12.30;;
35056;SDS011;21241;51.828;19.574;2023-09-19T12:06:28;13.80;;;12.80;;
35056;SDS011;21241;51.828;19.574;2023-09-19T12:09:03;12.80;;;12.10;;
35056;SDS011;21241;51.828;19.574;2023-09-19T12:11:40;13.00;;;12.20;;
35056;SDS011;21241;51.828;19.574;2023-09-19T12:14:11;12.40;;;11.60;;
35056;SDS011;21241;51.828;19.574;2023-09-19T12:16:53;11.70;;;11.00;;
35056;SDS011;21241;51.828;19.574;2023-09-19T12:19:26;11.40;;;10.70;;
35056;SDS011;21241;51.828;19.574;2023-09-19T12:21:54;10.70;;;10.00;;
35056;SDS011;21241;51.828;19.574;2023-09-19T12:24:27;10.80;;;10.10;;
35056;SDS011;21241;51.828;19.574;2023-09-19T12:27:01;12.10;;;11.20;;
35056;SDS011;21241;51.828;19.574;2023-09-19T12:29:48;11.20;;;10.50;;
35056;SDS011;21241;51.828;19.574;2023-09-19T12:32:16;10.90;;;10.20;;
35056;SDS011;21241;51.828;19.574;2023-09-19T12:34:50;10.70;;;9.90;;
35056;SDS011;21241;51.828;19.574;2023-09-19T12:37:22;10.60;;;9.80;;
35056;SDS011;21241;51.828;19.574;2023-09-19T12:39:51;9.80;;;9.10;;
35056;SDS011;21241;51.828;19.574;2023-09-19T12:42:24;9.10;;;8.50;;
35056;SDS011;21241;51.828;19.574;2023-09-19T12:45:00;8.70;;;8.20;;
35056;SDS011;21241;51.828;19.574;2023-09-19T12:47:29;8.50;;;8.00;;
35056;SDS011;21241;51.828;19.574;2023-09-19T12:50:10;8.60;;;7.90;;
35056;SDS011;21241;51.828;19.574;2023-09-19T12:52:48;8.00;;;7.30;;
35056;SDS011;21241;51.828;19.574;2023-09-19T12:55:24;7.70;;;7.20;;
35056;SDS011;21241;51.828;19.574;2023-09-19T12:57:58;8.10;;;7.50;;
35056;SDS011;21241;51.828;19.574;2023-09-19T13:00:34;6.80;;;6.40;;
35056;SDS011;21241;51.828;19.574;2023-09-19T13:03:17;6.60;;;6.10;;
35056;SDS011;21241;51.828;19.574;2023-09-19T13:08:32;6.20;;;5.70;;
35056;SDS011;21241;51.828;19.574;2023-09-19T13:11:05;6.90;;;6.20;;
35056;SDS011;21241;51.828;19.574;2023-09-19T13:13:37;5.40;;;5.00;;
35056;SDS011;21241;51.828;19.574;2023-09-19T13:16:21;5.00;;;4.60;;
35056;SDS011;21241;51.828;19.574;2023-09-19T13:18:52;4.70;;;4.30;;
35056;SDS011;21241;51.828;19.574;2023-09-19T13:24:23;4.30;;;3.90;;
35056;SDS011;21241;51.828;19.574;2023-09-19T13:26:55;3.70;;;3.40;;
35056;SDS011;21241;51.828;19.574;2023-09-19T13:29:23;4.00;;;3.60;;
35056;SDS011;21241;51.828;19.574;2023-09-19T13:31:51;4.40;;;4.00;;
35056;SDS011;21241;51.828;19.574;2023-09-19T13:34:23;4.00;;;3.70;;
35056;SDS011;21241;51.828;19.574;2023-09-19T13:36:52;4.40;;;3.50;;
35056;SDS011;21241;51.828;19.574;2023-09-19T13:39:20;4.40;;;3.30;;
35056;SDS011;21241;51.828;19.574;2023-09-19T13:41:48;4.00;;;3.70;;
35056;SDS011;21241;51.828;19.574;2023-09-19T13:44:16;3.30;;;3.10;;
35056;SDS011;21241;51.828;19.574;2023-09-19T13:46:44;3.60;;;3.20;;
35056;SDS011;21241;51.828;19.574;2023-09-19T13:49:14;3.80;;;3.50;;
35056;SDS011;21241;51.828;19.574;2023-09-19T13:51:43;3.50;;;3.20;;
35056;SDS011;21241;51.828;19.574;2023-09-19T13:54:12;4.10;;;3.20;;
35056;SDS011;21241;51.828;19.574;2023-09-19T13:56:40;3.90;;;3.50;;
35056;SDS011;21241;51.828;19.574;2023-09-19T13:59:08;3.30;;;3.00;;
35056;SDS011;21241;51.828;19.574;2023-09-19T14:01:36;3.50;;;3.30;;
35056;SDS011;21241;51.828;19.574;2023-09-19T14:04:04;3.60;;;3.30;;
35056;SDS011;21241;51.828;19.574;2023-09-19T14:06:31;3.70;;;3.50;;
35056;SDS011;21241;51.828;19.574;2023-09-19T14:09:00;3.60;;;3.40;;
35056;SDS011;21241;51.828;19.574;2023-09-19T14:11:29;4.40;;;3.80;;
35056;SDS011;21241;51.828;19.574;2023-09-19T14:13:56;4.60;;;3.70;;
35056;SDS011;21241;51.828;19.574;2023-09-19T14:16:25;3.70;;;3.40;;
35056;SDS011;21241;51.828;19.574;2023-09-19T14:18:57;4.50;;;3.40;;
35056;SDS011;21241;51.828;19.574;2023-09-19T14:21:26;4.00;;;3.60;;
35056;SDS011;21241;51.828;19.574;2023-09-19T14:23:53;3.60;;;3.30;;
35056;SDS011;21241;51.828;19.574;2023-09-19T14:26:22;3.20;;;2.90;;
35056;SDS011;21241;51.828;19.574;2023-09-19T14:28:51;3.40;;;3.10;;
35056;SDS011;21241;51.828;19.574;2023-09-19T14:31:19;3.40;;;3.10;;
35056;SDS011;21241;51.828;19.574;2023-09-19T14:33:52;5.00;;;3.50;;
35056;SDS011;21241;51.828;19.574;2023-09-19T14:36:22;3.60;;;3.20;;
35056;SDS011;21241;51.828;19.574;2023-09-19T14:38:52;3.80;;;3.50;;
35056;SDS011;21241;51.828;19.574;2023-09-19T14:41:24;3.60;;;2.90;;
35056;SDS011;21241;51.828;19.574;2023-09-19T14:43:53;3.30;;;3.10;;
35056;SDS011;21241;51.828;19.574;2023-09-19T14:46:23;3.40;;;2.70;;
35056;SDS011;21241;51.828;19.574;2023-09-19T14:48:55;3.60;;;3.00;;
35056;SDS011;21241;51.828;19.574;2023-09-19T14:51:28;2.50;;;2.40;;
35056;SDS011;21241;51.828;19.574;2023-09-19T14:53:57;3.90;;;2.70;;
35056;SDS011;21241;51.828;19.574;2023-09-19T14:56:25;4.70;;;2.70;;
35056;SDS011;21241;51.828;19.574;2023-09-19T14:58:53;2.80;;;2.50;;
35056;SDS011;21241;51.828;19.574;2023-09-19T15:01:21;2.90;;;2.50;;
35056;SDS011;21241;51.828;19.574;2023-09-19T15:03:50;4.20;;;3.00;;
35056;SDS011;21241;51.828;19.574;2023-09-19T15:06:18;2.70;;;2.30;;
35056;SDS011;21241;51.828;19.574;2023-09-19T15:08:47;3.00;;;2.50;;
35056;SDS011;21241;51.828;19.574;2023-09-19T15:11:16;2.70;;;2.50;;
35056;SDS011;21241;51.828;19.574;2023-09-19T15:13:46;3.60;;;2.80;;
35056;SDS011;21241;51.828;19.574;2023-09-19T15:16:14;2.90;;;2.60;;
35056;SDS011;21241;51.828;19.574;2023-09-19T15:18:43;2.70;;;2.50;;
35056;SDS011;21241;51.828;19.574;2023-09-19T15:21:12;2.90;;;2.20;;
35056;SDS011;21241;51.828;19.574;2023-09-19T15:23:42;3.40;;;2.70;;
35056;SDS011;21241;51.828;19.574;2023-09-19T15:26:11;2.60;;;2.20;;
35056;SDS011;21241;51.828;19.574;2023-09-19T15:28:40;2.70;;;2.30;;
35056;SDS011;21241;51.828;19.574;2023-09-19T15:31:10;2.30;;;2.10;;
35056;SDS011;21241;51.828;19.574;2023-09-19T15:33:39;2.80;;;2.60;;
35056;SDS011;21241;51.828;19.574;2023-09-19T15:36:08;2.80;;;2.60;;
35056;SDS011;21241;51.828;19.574;2023-09-19T15:38:54;2.60;;;2.40;;
35056;SDS011;21241;51.828;19.574;2023-09-19T15:41:45;2.50;;;2.10;;
35056;SDS011;21241;51.828;19.574;2023-09-19T15:44:18;2.40;;;2.20;;
35056;SDS011;21241;51.828;19.574;2023-09-19T15:46:46;2.50;;;2.30;;
35056;SDS011;21241;51.828;19.574;2023-09-19T15:49:14;3.10;;;2.70;;
35056;SDS011;21241;51.828;19.574;2023-09-19T15:51:42;2.60;;;2.40;;
35056;SDS011;21241;51.828;19.574;2023-09-19T15:54:12;2.80;;;2.40;;
35056;SDS011;21241;51.828;19.574;2023-09-19T15:56:42;3.00;;;2.40;;
35056;SDS011;21241;51.828;19.574;2023-09-19T15:59:12;2.40;;;2.20;;
35056;SDS011;21241;51.828;19.574;2023-09-19T16:01:41;3.10;;;2.60;;
35056;SDS011;21241;51.828;19.574;2023-09-19T16:04:11;3.30;;;2.60;;
35056;SDS011;21241;51.828;19.574;2023-09-19T16:06:40;2.70;;;2.50;;
35056;SDS011;21241;51.828;19.574;2023-09-19T16:09:08;2.60;;;2.40;;
35056;SDS011;21241;51.828;19.574;2023-09-19T16:11:38;2.70;;;2.40;;
35056;SDS011;21241;51.828;19.574;2023-09-19T16:14:06;2.40;;;2.20;;
35056;SDS011;21241;51.828;19.574;2023-09-19T16:16:34;2.80;;;2.50;;
35056;SDS011;21241;51.828;19.574;2023-09-19T16:19:04;2.60;;;2.40;;
35056;SDS011;21241;51.828;19.574;2023-09-19T16:21:33;2.70;;;2.40;;
35056;SDS011;21241;51.828;19.574;2023-09-19T16:24:03;2.40;;;2.20;;
35056;SDS011;21241;51.828;19.574;2023-09-19T16:26:35;2.40;;;2.30;;
35056;SDS011;21241;51.828;19.574;2023-09-19T16:29:03;3.20;;;2.90;;
35056;SDS011;21241;51.828;19.574;2023-09-19T16:31:30;3.20;;;3.00;;
35056;SDS011;21241;51.828;19.574;2023-09-19T16:34:00;3.30;;;2.70;;
35056;SDS011;21241;51.828;19.574;2023-09-19T16:36:28;2.80;;;2.40;;
35056;SDS011;21241;51.828;19.574;2023-09-19T16:38:56;2.50;;;2.30;;
35056;SDS011;21241;51.828;19.574;2023-09-19T16:41:24;3.40;;;2.70;;
35056;SDS011;21241;51.828;19.574;2023-09-19T16:43:52;3.40;;;3.20;;
35056;SDS011;21241;51.828;19.574;2023-09-19T16:46:20;3.80;;;3.40;;
35056;SDS011;21241;51.828;19.574;2023-09-19T16:48:48;4.00;;;3.60;;
35056;SDS011;21241;51.828;19.574;2023-09-19T16:51:21;3.70;;;3.20;;
35056;SDS011;21241;51.828;19.574;2023-09-19T16:53:49;3.70;;;3.40;;
35056;SDS011;21241;51.828;19.574;2023-09-19T16:56:20;3.60;;;3.30;;
35056;SDS011;21241;51.828;19.574;2023-09-19T16:58:48;4.90;;;3.40;;
35056;SDS011;21241;51.828;19.574;2023-09-19T17:01:20;3.40;;;3.20;;
35056;SDS011;21241;51.828;19.574;2023-09-19T17:03:52;3.90;;;3.50;;
35056;SDS011;21241;51.828;19.574;2023-09-19T17:06:20;4.00;;;3.70;;
35056;SDS011;21241;51.828;19.574;2023-09-19T17:08:51;5.70;;;5.10;;
35056;SDS011;21241;51.828;19.574;2023-09-19T17:11:19;4.90;;;4.50;;
35056;SDS011;21241;51.828;19.574;2023-09-19T17:13:49;5.00;;;4.60;;
35056;SDS011;21241;51.828;19.574;2023-09-19T17:16:19;5.50;;;5.00;;
35056;SDS011;21241;51.828;19.574;2023-09-19T17:18:51;5.30;;;4.80;;
35056;SDS011;21241;51.828;19.574;2023-09-19T17:21:21;5.20;;;4.90;;